Terminal Aerodrome Forecast
Issued by NWS

Home | Current Version | Previous Version | Text Only | Print | Product List | Glossary On
Versions: 1 2 3 4 5 6 7 8 9 10 11 12 13 14 15 16 17 18
000
FTUS41 KBTV 211738
TAFMSS
TAF
KMSS 211738Z 2118/2218 21014G27KT P6SM FEW200
     FM220000 22009KT P6SM VCSH BKN150
     FM220300 21008KT 6SM -SHRA BR BKN045
     FM221000 26006KT 2SM -SHRASN BR OVC015
     FM221200 26006KT P6SM VCSH OVC020
     FM221500 29010KT P6SM VCSH BKN030=

USA.gov is the U.S. government's official web portal to all federal, state and local government web resources and services.